createdAt,value
2022-08-10T00:01:54.697Z,51.21
2022-08-10T00:04:23.940Z,52.24
2022-08-10T00:06:56.480Z,51.87
2022-08-10T00:09:24.502Z,51.68
2022-08-10T00:11:53.496Z,52.01
2022-08-10T00:14:21.393Z,51.73
2022-08-10T00:16:49.082Z,51.70
2022-08-10T00:19:18.415Z,52.02
2022-08-10T00:21:47.582Z,51.05
2022-08-10T00:24:16.346Z,51.80
2022-08-10T00:27:52.304Z,52.08
2022-08-10T00:29:31.219Z,51.83
2022-08-10T00:31:59.593Z,52.53
2022-08-10T00:34:32.511Z,52.32
2022-08-10T00:37:00.954Z,52.34
2022-08-10T00:39:29.774Z,52.80
2022-08-10T00:42:06.603Z,52.85
2022-08-10T00:44:42.681Z,52.88
2022-08-10T00:47:35.628Z,53.38
2022-08-10T00:49:59.060Z,52.83
2022-08-10T00:52:32.633Z,52.82
2022-08-10T00:55:05.138Z,53.05
2022-08-10T00:57:33.530Z,53.52
2022-08-10T01:00:01.683Z,52.90
2022-08-10T01:02:34.159Z,54.87
2022-08-10T01:05:07.653Z,57.80
2022-08-10T01:07:49.992Z,58.76
2022-08-10T01:10:49.938Z,59.93
2022-08-10T01:13:26.776Z,61.69
2022-08-10T01:16:04.798Z,62.07
2022-08-10T01:18:44.067Z,62.25
2022-08-10T01:21:56.816Z,61.93
2022-08-10T01:25:11.305Z,62.79
2022-08-10T01:27:59.516Z,63.71
2022-08-10T01:30:30.836Z,62.75
2022-08-10T01:33:13.158Z,62.88
2022-08-10T01:35:59.885Z,63.05
2022-08-10T01:38:32.651Z,63.20
2022-08-10T01:41:06.718Z,63.54
2022-08-10T01:43:37.405Z,63.82
2022-08-10T01:46:07.653Z,64.10
2022-08-10T01:48:40.394Z,63.96
2022-08-10T01:51:16.506Z,64.03
2022-08-10T01:53:54.858Z,64.31
2022-08-10T01:56:26.012Z,63.80
2022-08-10T01:58:59.533Z,63.91
2022-08-10T02:01:32.880Z,63.95
2022-08-10T02:04:06.358Z,64.29
2022-08-10T02:06:42.467Z,64.61
2022-08-10T02:09:13.343Z,64.58
2022-08-10T02:12:06.212Z,64.31
2022-08-10T02:14:34.995Z,63.97
2022-08-10T02:17:06.538Z,63.95
2022-08-10T02:19:39.129Z,62.79
2022-08-10T02:22:36.277Z,62.27
2022-08-10T02:24:58.026Z,61.50
2022-08-10T02:27:27.981Z,61.55
2022-08-10T02:29:57.938Z,60.97
2022-08-10T02:32:37.852Z,59.40
2022-08-10T02:35:22.250Z,59.75
2022-08-10T02:37:53.574Z,60.05
2022-08-10T02:45:00.994Z,60.00
2022-08-10T02:45:21.829Z,59.51
2022-08-10T02:46:41.472Z,59.15
2022-08-10T02:49:18.456Z,59.23
2022-08-10T02:52:07.331Z,58.93
2022-08-10T02:54:54.178Z,58.73
2022-08-10T02:57:28.797Z,58.57
2022-08-10T03:00:04.752Z,58.83
2022-08-10T03:02:42.552Z,59.43
2022-08-10T03:05:12.550Z,59.63
2022-08-10T03:07:52.163Z,59.25
2022-08-10T03:10:23.858Z,59.12
2022-08-10T03:12:58.998Z,59.29
2022-08-10T03:15:29.617Z,58.93
2022-08-10T03:17:59.088Z,58.47
2022-08-10T03:20:36.503Z,58.39
2022-08-10T03:23:19.395Z,58.79
2022-08-10T03:25:53.313Z,59.50
2022-08-10T03:28:24.969Z,60.03
2022-08-10T03:30:53.262Z,60.28
2022-08-10T03:33:22.864Z,59.61
2022-08-10T03:36:42.227Z,59.43
2022-08-10T03:38:41.041Z,58.63
2022-08-10T03:41:11.823Z,58.31
2022-08-10T03:43:48.201Z,57.48
2022-08-10T03:46:19.110Z,57.35
2022-08-10T03:48:50.051Z,57.30
2022-08-10T03:51:22.099Z,56.87
2022-08-10T03:54:05.350Z,57.18
2022-08-10T03:56:37.841Z,56.92
2022-08-10T03:59:07.937Z,56.94
2022-08-10T04:02:52.197Z,56.53
2022-08-10T04:04:26.153Z,56.37
2022-08-10T04:07:00.913Z,55.89
2022-08-10T04:09:53.453Z,55.94
2022-08-10T04:12:19.500Z,55.86
2022-08-10T04:14:50.867Z,55.53
2022-08-10T04:18:01.169Z,55.89
2022-08-10T04:20:32.067Z,55.52
2022-08-10T04:23:09.299Z,55.49
2022-08-10T04:25:38.673Z,55.35
2022-08-10T04:28:07.972Z,54.51
2022-08-10T04:30:37.189Z,54.48
2022-08-10T04:33:07.060Z,54.25
2022-08-10T04:35:35.726Z,53.87
2022-08-10T04:38:06.038Z,53.77
2022-08-10T04:40:33.331Z,53.52
2022-08-10T04:43:11.305Z,53.31
2022-08-10T04:45:49.011Z,52.86
2022-08-10T04:48:43.270Z,52.06
2022-08-10T04:51:17.602Z,51.49
2022-08-10T04:54:02.784Z,51.19
2022-08-10T04:56:38.601Z,48.40
2022-08-10T04:59:08.017Z,44.92
2022-08-10T05:02:22.567Z,42.15
2022-08-10T05:04:36.151Z,40.17
2022-08-10T05:07:11.289Z,39.08
2022-08-10T05:10:02.740Z,39.44
2022-08-10T05:12:37.640Z,38.07
2022-08-10T05:15:12.327Z,38.03
2022-08-10T05:17:40.830Z,38.07
2022-08-10T05:20:11.303Z,38.41
2022-08-10T05:22:41.921Z,38.37
2022-08-10T05:25:12.706Z,38.25
2022-08-10T05:27:42.052Z,36.87
2022-08-10T05:30:13.632Z,37.30
2022-08-10T05:32:58.438Z,38.07
2022-08-10T05:35:28.400Z,38.37
2022-08-10T05:38:09.766Z,36.85
2022-08-10T05:40:46.106Z,35.31
2022-08-10T05:43:17.670Z,35.16
2022-08-10T05:46:17.054Z,36.58
2022-08-10T05:48:56.193Z,35.03
2022-08-10T05:51:22.465Z,34.84
2022-08-10T05:54:01.308Z,34.32
2022-08-10T05:56:56.456Z,34.67
2022-08-10T06:00:34.973Z,33.12
2022-08-10T06:02:45.573Z,32.59
2022-08-10T06:05:25.649Z,35.11
2022-08-10T06:08:01.144Z,35.19
2022-08-10T06:10:35.301Z,34.62
2022-08-10T06:13:34.403Z,33.55
2022-08-10T06:16:10.770Z,34.56
2022-08-10T06:18:40.838Z,32.89
2022-08-10T06:21:09.876Z,29.58
2022-08-10T06:23:39.390Z,29.66
2022-08-10T06:26:13.408Z,29.92
2022-08-10T06:29:02.505Z,29.85
2022-08-10T06:31:47.465Z,27.75
2022-08-10T06:34:42.377Z,28.92
2022-08-10T06:37:11.619Z,29.19
2022-08-10T06:39:39.220Z,29.77
2022-08-10T06:42:21.006Z,30.38
2022-08-10T06:45:08.921Z,30.00
2022-08-10T06:48:05.596Z,30.11
2022-08-10T06:50:58.235Z,29.58
2022-08-10T06:53:51.985Z,28.43
2022-08-10T06:56:36.166Z,26.91
2022-08-10T06:59:22.999Z,26.61
2022-08-10T07:01:53.882Z,27.75
2022-08-10T07:04:35.444Z,27.51
2022-08-10T07:07:05.994Z,27.87
2022-08-10T07:09:38.157Z,26.64
2022-08-10T07:12:09.384Z,25.92
2022-08-10T07:14:45.619Z,26.31
2022-08-10T07:17:17.784Z,26.01
2022-08-10T07:19:52.485Z,26.77
2022-08-10T07:23:08.319Z,27.05
2022-08-10T07:25:27.420Z,27.68
2022-08-10T07:27:58.607Z,27.83
2022-08-10T07:30:31.109Z,27.66
2022-08-10T07:33:00.749Z,27.29
2022-08-10T07:35:36.432Z,27.12
2022-08-10T07:38:31.616Z,24.90
2022-08-10T07:41:03.433Z,25.27
2022-08-10T07:43:36.587Z,24.26
2022-08-10T07:46:05.876Z,23.25
2022-08-10T07:48:49.179Z,22.49
2022-08-10T07:51:20.232Z,22.95
2022-08-10T07:53:51.850Z,23.08
2022-08-10T07:56:45.849Z,24.20
2022-08-10T07:59:12.999Z,24.43
2022-08-10T08:01:48.677Z,23.11
2022-08-10T08:04:22.560Z,22.45
2022-08-10T08:06:51.658Z,23.54
2022-08-10T08:09:20.750Z,23.15
2022-08-10T08:11:53.717Z,23.36
2022-08-10T08:14:23.151Z,23.51
2022-08-10T08:16:53.521Z,23.66
2022-08-10T08:19:37.373Z,24.38
2022-08-10T08:24:05.690Z,24.01
2022-08-10T08:24:59.197Z,22.36
2022-08-10T08:27:28.835Z,23.80
2022-08-10T08:29:58.436Z,23.89
2022-08-10T08:32:28.544Z,23.41
2022-08-10T08:35:03.807Z,22.89
2022-08-10T08:38:29.851Z,22.35
2022-08-10T08:40:33.808Z,23.22
2022-08-10T08:43:38.898Z,23.42
2022-08-10T08:46:36.942Z,22.79
2022-08-10T08:50:08.208Z,22.33
2022-08-10T08:52:39.818Z,22.91
2022-08-10T08:56:04.493Z,22.40
2022-08-10T08:58:43.772Z,22.80
2022-08-10T09:01:20.077Z,22.84
2022-08-10T09:04:21.106Z,22.64
2022-08-10T09:07:59.689Z,22.85
2022-08-10T09:10:24.668Z,21.64
2022-08-10T09:13:05.163Z,21.30
2022-08-10T09:15:58.651Z,22.97
2022-08-10T09:18:43.037Z,22.38
2022-08-10T09:21:19.979Z,21.16
2022-08-10T09:24:04.817Z,21.00
2022-08-10T09:26:45.995Z,21.52
2022-08-10T09:29:30.020Z,21.55
2022-08-10T09:36:15.541Z,20.76
2022-08-10T09:36:25.997Z,20.41
2022-08-10T09:38:12.125Z,19.84
2022-08-10T09:41:01.056Z,19.68
2022-08-10T09:43:29.881Z,19.56
2022-08-10T09:46:37.690Z,19.23
2022-08-10T09:49:17.389Z,19.24
2022-08-10T09:52:25.311Z,19.62
2022-08-10T09:55:15.054Z,20.06
2022-08-10T09:57:59.147Z,19.45
2022-08-10T10:00:41.996Z,19.66
2022-08-10T10:03:45.642Z,18.64
2022-08-10T10:06:36.931Z,19.55
2022-08-10T10:09:27.362Z,18.83
2022-08-10T10:12:10.005Z,19.10
2022-08-10T10:15:24.026Z,18.02
2022-08-10T10:18:08.034Z,18.65
2022-08-10T10:21:07.916Z,18.00
2022-08-10T10:24:22.383Z,18.52
2022-08-10T10:27:06.645Z,18.15
2022-08-10T10:29:58.629Z,17.67
2022-08-10T10:32:38.920Z,18.25
2022-08-10T10:35:12.076Z,19.37
2022-08-10T10:38:03.021Z,18.75
2022-08-10T10:40:33.085Z,18.68
2022-08-10T10:43:38.530Z,18.91
2022-08-10T10:46:22.970Z,17.69
2022-08-10T10:49:13.866Z,17.16
2022-08-10T10:51:50.532Z,17.49
2022-08-10T10:54:36.136Z,18.67
2022-08-10T10:57:18.538Z,19.76
2022-08-10T11:00:12.108Z,19.64
2022-08-10T11:03:17.109Z,19.47
2022-08-10T11:05:53.335Z,19.25
2022-08-10T11:08:29.185Z,18.96
2022-08-10T11:11:03.365Z,18.94
2022-08-10T11:14:25.777Z,19.45
2022-08-10T11:16:50.760Z,18.79
2022-08-10T11:20:01.644Z,19.13
2022-08-10T11:22:54.075Z,18.18
2022-08-10T11:25:33.419Z,20.01
2022-08-10T11:28:16.949Z,22.70
2022-08-10T11:31:18.819Z,23.26
2022-08-10T11:34:48.522Z,23.14
2022-08-10T11:37:16.504Z,23.15
2022-08-10T11:40:05.983Z,23.55
2022-08-10T11:42:55.331Z,25.47
2022-08-10T11:45:29.430Z,27.91
2022-08-10T11:48:53.415Z,24.44
2022-08-10T11:51:10.061Z,22.34
2022-08-10T11:53:45.386Z,21.99
2022-08-10T11:56:24.920Z,21.91
2022-08-10T11:59:16.700Z,21.83
2022-08-10T12:01:47.646Z,20.68
2022-08-10T12:04:17.699Z,20.93
2022-08-10T12:06:56.408Z,21.79
2022-08-10T12:10:05.135Z,22.29
2022-08-10T12:12:14.325Z,22.37
2022-08-10T12:14:53.268Z,21.96
2022-08-10T12:17:50.315Z,22.56
2022-08-10T12:20:36.238Z,21.54
2022-08-10T12:23:22.160Z,20.41
2022-08-10T12:26:16.480Z,20.32
2022-08-10T12:28:54.481Z,19.87
2022-08-10T12:31:38.087Z,19.57
2022-08-10T12:34:20.445Z,19.77
2022-08-10T12:36:57.922Z,19.64
2022-08-10T12:39:30.297Z,19.14
2022-08-10T12:42:06.139Z,19.14
2022-08-10T12:45:06.093Z,18.57
2022-08-10T12:47:56.165Z,17.95
2022-08-10T12:50:34.084Z,17.79
2022-08-10T12:53:16.912Z,17.02
2022-08-10T12:55:46.537Z,16.94
2022-08-10T12:58:57.959Z,17.36
2022-08-10T13:01:16.606Z,19.17
2022-08-10T13:04:23.666Z,19.91
2022-08-10T13:06:46.838Z,19.55
2022-08-10T13:09:23.859Z,19.92
2022-08-10T13:12:18.321Z,19.60
2022-08-10T13:15:47.708Z,19.55
2022-08-10T13:18:01.894Z,19.22
2022-08-10T13:20:35.783Z,19.06
2022-08-10T13:23:11.924Z,19.39
2022-08-10T13:25:43.652Z,19.09
2022-08-10T13:28:36.666Z,19.05
2022-08-10T13:31:06.406Z,20.06
2022-08-10T13:34:36.604Z,20.63
2022-08-10T13:36:42.002Z,23.77
2022-08-10T13:39:12.814Z,24.10
2022-08-10T13:41:44.553Z,26.63
2022-08-10T13:44:18.829Z,30.11
2022-08-10T13:46:55.119Z,30.38
2022-08-10T13:49:24.259Z,29.12
2022-08-10T13:51:56.753Z,28.81
2022-08-10T13:54:29.467Z,29.56
2022-08-10T13:56:58.253Z,28.70
2022-08-10T14:00:33.969Z,29.20
2022-08-10T14:02:35.391Z,28.55
2022-08-10T14:05:06.751Z,28.84
2022-08-10T14:07:40.082Z,29.13
2022-08-10T14:11:08.410Z,29.17
2022-08-10T14:13:36.207Z,29.20
2022-08-10T14:16:08.237Z,28.42
2022-08-10T14:18:37.032Z,27.94
2022-08-10T14:21:05.935Z,27.86
2022-08-10T14:23:40.701Z,28.29
2022-08-10T14:26:11.589Z,28.11
2022-08-10T14:28:46.946Z,28.36
2022-08-10T14:31:21.837Z,27.81
2022-08-10T14:33:56.559Z,27.68
2022-08-10T14:36:32.100Z,28.38
2022-08-10T14:39:02.792Z,28.64
2022-08-10T14:42:01.748Z,30.13
2022-08-10T14:44:21.870Z,31.21
2022-08-10T14:46:56.116Z,32.09
2022-08-10T14:49:26.153Z,32.41
2022-08-10T14:52:01.910Z,32.50
2022-08-10T14:54:32.575Z,32.80
2022-08-10T14:57:11.019Z,33.58
2022-08-10T15:00:22.930Z,33.38
2022-08-10T15:02:56.117Z,33.01
2022-08-10T15:05:39.762Z,33.03
2022-08-10T15:08:11.771Z,33.46
2022-08-10T15:10:40.339Z,33.88
2022-08-10T15:13:34.901Z,34.13
2022-08-10T15:16:12.427Z,33.86
2022-08-10T15:18:58.462Z,33.46
2022-08-10T15:21:35.254Z,34.06
2022-08-10T15:24:37.184Z,34.83
2022-08-10T15:27:08.859Z,34.66
2022-08-10T15:29:57.677Z,34.29
2022-08-10T15:32:54.200Z,34.00
2022-08-10T15:35:44.804Z,34.62
2022-08-10T15:38:16.366Z,35.16
2022-08-10T15:40:55.168Z,35.27
2022-08-10T15:43:28.284Z,35.53
2022-08-10T15:46:19.307Z,35.92
2022-08-10T15:49:00.442Z,36.42
2022-08-10T15:51:53.718Z,36.35
2022-08-10T15:54:33.385Z,36.10
2022-08-10T15:57:08.193Z,36.31
2022-08-10T16:00:06.740Z,36.42
2022-08-10T16:02:51.144Z,36.27
2022-08-10T16:06:00.307Z,36.26
2022-08-10T16:08:17.389Z,35.77
2022-08-10T16:10:58.450Z,36.09
2022-08-10T16:13:57.303Z,36.34
2022-08-10T16:16:20.864Z,36.28
2022-08-10T16:18:50.527Z,36.02
2022-08-10T16:21:22.666Z,35.80
2022-08-10T16:24:14.925Z,36.39
2022-08-10T16:26:46.702Z,36.38
2022-08-10T16:29:18.055Z,35.04
2022-08-10T16:31:56.097Z,34.43
2022-08-10T16:34:26.263Z,34.47
2022-08-10T16:37:00.434Z,34.01
2022-08-10T16:39:59.391Z,34.29
2022-08-10T16:42:24.119Z,34.32
2022-08-10T16:44:58.180Z,34.33
2022-08-10T16:47:29.080Z,34.68
2022-08-10T16:50:02.690Z,34.65
2022-08-10T16:52:33.091Z,34.62
2022-08-10T16:55:16.894Z,34.90
2022-08-10T16:57:56.713Z,34.94
2022-08-10T17:00:26.409Z,35.10
2022-08-10T17:02:58.546Z,35.80
2022-08-10T17:06:09.605Z,35.89
2022-08-10T17:08:19.382Z,36.63
2022-08-10T17:10:46.922Z,37.05
2022-08-10T17:13:16.807Z,36.70
2022-08-10T17:15:53.440Z,36.98
2022-08-10T17:18:29.969Z,37.51
2022-08-10T17:21:06.652Z,37.89
2022-08-10T17:23:38.018Z,37.85
2022-08-10T17:26:12.561Z,37.96
2022-08-10T17:28:51.337Z,38.37
2022-08-10T17:31:53.334Z,38.38
2022-08-10T17:34:29.402Z,38.32
2022-08-10T17:36:59.707Z,38.21
2022-08-10T17:39:56.418Z,37.68
2022-08-10T17:42:27.458Z,37.89
2022-08-10T17:44:55.941Z,37.87
2022-08-10T17:47:27.499Z,38.13
2022-08-10T17:49:57.390Z,38.32
2022-08-10T17:52:29.389Z,38.23
2022-08-10T17:55:09.641Z,38.58
2022-08-10T17:57:39.069Z,38.27
2022-08-10T18:00:16.019Z,38.19
2022-08-10T18:02:46.593Z,38.23
2022-08-10T18:05:15.281Z,38.50
2022-08-10T18:07:53.702Z,39.00
2022-08-10T18:10:22.342Z,38.99
2022-08-10T18:12:53.574Z,39.53
2022-08-10T18:15:24.922Z,39.65
2022-08-10T18:17:59.186Z,39.55
2022-08-10T18:20:36.256Z,39.77
2022-08-10T18:23:06.398Z,39.68
2022-08-10T18:25:39.136Z,39.25
2022-08-10T18:28:11.244Z,39.44
2022-08-10T18:30:51.235Z,39.83
2022-08-10T18:33:31.965Z,39.75
2022-08-10T18:36:03.500Z,39.70
2022-08-10T18:38:33.807Z,39.75
2022-08-10T18:41:06.711Z,40.24
2022-08-10T18:44:10.735Z,40.75
2022-08-10T18:46:44.386Z,40.88
2022-08-10T18:49:29.303Z,41.03
2022-08-10T18:52:02.375Z,41.02
2022-08-10T18:54:44.222Z,41.29
2022-08-10T18:57:37.318Z,41.94
2022-08-10T19:00:13.617Z,42.16
2022-08-10T19:03:18.614Z,41.82
2022-08-10T19:05:57.461Z,40.73
2022-08-10T19:08:50.782Z,40.56
2022-08-10T19:12:00.167Z,40.57
2022-08-10T19:14:45.879Z,40.38
2022-08-10T19:18:03.345Z,40.60
2022-08-10T19:20:36.618Z,40.83
2022-08-10T19:23:26.054Z,40.49
2022-08-10T19:26:37.998Z,40.83
2022-08-10T19:30:08.375Z,40.68
2022-08-10T19:32:29.577Z,40.08
2022-08-10T19:35:19.588Z,40.10
2022-08-10T19:38:01.162Z,40.50
2022-08-10T19:40:44.197Z,40.71
2022-08-10T19:43:20.558Z,40.66
2022-08-10T19:46:11.804Z,41.15
2022-08-10T19:49:02.402Z,41.71
2022-08-10T19:51:39.827Z,41.76
2022-08-10T19:54:23.183Z,42.43
2022-08-10T19:57:25.688Z,42.38
2022-08-10T20:00:18.884Z,42.60
2022-08-10T20:02:51.276Z,42.59
2022-08-10T20:05:24.823Z,43.02
2022-08-10T20:07:52.135Z,42.97
2022-08-10T20:10:25.990Z,43.18
2022-08-10T20:13:30.611Z,43.05
2022-08-10T20:16:07.247Z,43.30
2022-08-10T20:18:43.829Z,42.78
2022-08-10T20:21:21.829Z,42.74
2022-08-10T20:24:05.971Z,43.44
2022-08-10T20:26:49.085Z,43.21
2022-08-10T20:29:57.604Z,43.03
2022-08-10T20:32:49.070Z,43.45
2022-08-10T20:35:26.991Z,43.29
2022-08-10T20:38:10.958Z,42.92
2022-08-10T20:40:52.975Z,42.96
2022-08-10T20:43:41.365Z,41.56
2022-08-10T20:46:27.705Z,41.29
2022-08-10T20:49:31.462Z,41.94
2022-08-10T20:52:03.216Z,41.34
2022-08-10T20:54:38.529Z,41.28
2022-08-10T20:57:54.098Z,41.34
2022-08-10T21:00:28.074Z,41.43
2022-08-10T21:03:21.036Z,41.39
2022-08-10T21:06:07.946Z,41.39
2022-08-10T21:08:53.526Z,41.78
2022-08-10T21:11:58.030Z,41.80
2022-08-10T21:14:47.771Z,41.64
2022-08-10T21:17:51.750Z,41.97
2022-08-10T21:20:34.591Z,42.19
2022-08-10T21:23:08.642Z,42.63
2022-08-10T21:26:18.451Z,42.33
2022-08-10T21:29:10.000Z,41.92
2022-08-10T21:32:14.722Z,42.10
2022-08-10T21:35:37.438Z,42.05
2022-08-10T21:38:14.086Z,41.10
2022-08-10T21:41:17.948Z,40.99
2022-08-10T21:44:14.536Z,41.46
2022-08-10T21:47:39.610Z,41.25
2022-08-10T21:50:27.691Z,41.40
2022-08-10T21:53:53.322Z,41.53
2022-08-10T21:56:51.224Z,41.37
2022-08-10T21:59:56.420Z,40.58
2022-08-10T22:02:50.281Z,40.41
2022-08-10T22:05:45.533Z,40.64
2022-08-10T22:08:36.817Z,40.76
2022-08-10T22:11:31.120Z,41.61
2022-08-10T22:14:26.825Z,42.09
2022-08-10T22:17:59.415Z,42.04
2022-08-10T22:20:53.191Z,41.62
2022-08-10T22:24:19.034Z,41.30
2022-08-10T22:27:12.291Z,41.34
2022-08-10T22:30:23.146Z,41.76
2022-08-10T22:33:17.946Z,41.84
2022-08-10T22:36:24.137Z,42.68
2022-08-10T22:40:12.055Z,43.28
2022-08-10T22:43:10.924Z,43.26
2022-08-10T22:46:07.663Z,43.90
2022-08-10T22:49:01.838Z,43.59
2022-08-10T22:51:46.078Z,43.49
2022-08-10T22:54:43.978Z,43.41
2022-08-10T22:57:35.895Z,43.00
2022-08-10T23:00:18.267Z,43.44
2022-08-10T23:02:59.748Z,43.50
2022-08-10T23:05:38.507Z,43.27
2022-08-10T23:08:33.622Z,43.38
2022-08-10T23:11:12.455Z,43.22
2022-08-10T23:13:45.122Z,43.35
2022-08-10T23:16:38.354Z,42.94
2022-08-10T23:19:10.898Z,43.20
2022-08-10T23:22:05.611Z,43.28
2022-08-10T23:24:49.732Z,43.27
2022-08-10T23:27:39.027Z,43.16
2022-08-10T23:30:17.022Z,42.59
2022-08-10T23:32:49.378Z,41.00
2022-08-10T23:36:13.064Z,41.10
2022-08-10T23:38:22.047Z,41.00
2022-08-10T23:40:53.844Z,41.60
2022-08-10T23:43:46.687Z,41.17
2022-08-10T23:46:16.202Z,40.11
2022-08-10T23:48:47.704Z,40.46
2022-08-10T23:51:17.523Z,40.86
2022-08-10T23:53:48.212Z,40.86
2022-08-10T23:56:22.840Z,41.17
2022-08-10T23:58:57.519Z,41.46
